createdAt,value
2022-11-24T00:04:56.086Z,100.00
2022-11-24T00:09:57.460Z,100.00
2022-11-24T00:14:58.877Z,100.00
2022-11-24T00:20:00.229Z,100.00
2022-11-24T00:25:01.686Z,100.00
2022-11-24T00:30:03.166Z,100.00
2022-11-24T00:35:04.893Z,100.00
2022-11-24T00:40:06.830Z,100.00
2022-11-24T00:45:13.768Z,100.00
2022-11-24T00:50:16.021Z,100.00
2022-11-24T00:55:17.342Z,100.00
2022-11-24T01:00:18.780Z,100.00
2022-11-24T01:05:20.386Z,100.00
2022-11-24T01:10:21.723Z,100.00
2022-11-24T01:15:23.537Z,100.00
2022-11-24T01:20:24.843Z,100.00
2022-11-24T01:25:26.193Z,100.00
2022-11-24T01:30:27.526Z,100.00
2022-11-24T01:35:28.841Z,100.00
2022-11-24T01:40:30.266Z,100.00
2022-11-24T01:45:33.201Z,100.00
2022-11-24T01:50:35.646Z,100.00
2022-11-24T01:55:38.067Z,100.00
2022-11-24T02:00:41.066Z,100.00
2022-11-24T02:05:51.090Z,100.00
2022-11-24T02:10:52.702Z,100.00
2022-11-24T02:15:54.343Z,100.00
2022-11-24T02:20:56.071Z,100.00
2022-11-24T02:26:12.967Z,100.00
2022-11-24T02:31:14.395Z,100.00
2022-11-24T02:36:15.915Z,100.00
2022-11-24T02:41:20.070Z,100.00
2022-11-24T02:46:21.562Z,100.00
2022-11-24T02:51:23.055Z,100.00
2022-11-24T02:56:25.707Z,100.00
2022-11-24T03:01:27.149Z,100.00
2022-11-24T03:06:28.587Z,100.00
2022-11-24T03:11:29.946Z,100.00
2022-11-24T03:16:31.523Z,100.00
2022-11-24T03:21:32.989Z,100.00
2022-11-24T03:26:34.776Z,100.00
2022-11-24T03:31:36.140Z,100.00
2022-11-24T03:36:37.497Z,100.00
2022-11-24T03:41:38.967Z,100.00
2022-11-24T03:46:40.470Z,100.00
2022-11-24T03:51:41.860Z,100.00
2022-11-24T03:56:43.164Z,100.00
2022-11-24T04:01:44.869Z,100.00
2022-11-24T04:06:46.323Z,100.00
2022-11-24T04:12:06.359Z,100.00
2022-11-24T04:17:07.684Z,100.00
2022-11-24T04:22:09.120Z,100.00
2022-11-24T04:27:10.425Z,100.00
2022-11-24T04:32:11.798Z,100.00
2022-11-24T04:37:13.113Z,100.00
2022-11-24T04:42:14.478Z,100.00
2022-11-24T04:47:21.129Z,100.00
2022-11-24T04:52:23.226Z,100.00
2022-11-24T04:57:25.802Z,100.00
2022-11-24T05:02:27.118Z,100.00
2022-11-24T05:07:28.690Z,100.00
2022-11-24T05:12:33.135Z,100.00
2022-11-24T05:17:35.812Z,100.00
2022-11-24T05:22:37.226Z,100.00
2022-11-24T05:27:38.589Z,100.00
2022-11-24T05:32:40.188Z,100.00
2022-11-24T05:37:41.541Z,100.00
2022-11-24T05:42:47.186Z,100.00
2022-11-24T05:47:50.378Z,100.00
2022-11-24T05:52:51.764Z,100.00
2022-11-24T05:57:57.920Z,100.00
2022-11-24T06:02:59.933Z,100.00
2022-11-24T06:08:01.395Z,100.00
2022-11-24T06:13:06.094Z,100.00
2022-11-24T06:18:07.459Z,100.00
2022-11-24T06:23:08.758Z,100.00
2022-11-24T06:28:10.109Z,100.00
2022-11-24T06:33:11.425Z,100.00
2022-11-24T06:38:12.734Z,100.00
2022-11-24T06:43:15.155Z,100.00
2022-11-24T06:48:16.514Z,100.00
2022-11-24T06:53:17.947Z,100.00
2022-11-24T06:58:19.257Z,100.00
2022-11-24T07:03:20.772Z,100.00
2022-11-24T07:08:22.165Z,100.00
2022-11-24T07:13:23.514Z,100.00
2022-11-24T07:18:24.832Z,100.00
2022-11-24T07:23:26.147Z,100.00
2022-11-24T07:28:27.458Z,100.00
2022-11-24T07:33:28.833Z,100.00
2022-11-24T07:38:31.570Z,100.00
2022-11-24T07:43:33.901Z,100.00
2022-11-24T07:48:35.269Z,100.00
2022-11-24T07:53:37.221Z,100.00
2022-11-24T07:58:38.653Z,100.00
2022-11-24T08:03:40.263Z,100.00
2022-11-24T08:08:41.615Z,100.00
2022-11-24T08:13:43.458Z,100.00
2022-11-24T08:18:49.026Z,100.00
2022-11-24T08:23:53.718Z,100.00
2022-11-24T08:28:58.593Z,100.00
2022-11-24T08:34:00.400Z,100.00
2022-11-24T08:39:02.189Z,100.00
2022-11-24T08:44:03.579Z,100.00
2022-11-24T08:49:06.444Z,100.00
2022-11-24T08:54:09.112Z,100.00
2022-11-24T08:59:14.212Z,89.19
2022-11-24T09:04:15.637Z,85.55
2022-11-24T09:09:17.861Z,82.13
2022-11-24T09:14:19.227Z,79.92
2022-11-24T09:19:20.549Z,77.65
2022-11-24T09:24:21.896Z,72.21
2022-11-24T09:29:23.217Z,71.70
2022-11-24T09:34:24.512Z,65.69
2022-11-24T09:39:25.840Z,75.83
2022-11-24T09:44:33.316Z,79.33
2022-11-24T09:49:51.789Z,70.79
2022-11-24T09:54:55.336Z,60.77
2022-11-24T10:00:01.538Z,69.38
2022-11-24T10:05:04.575Z,66.47
2022-11-24T10:10:29.637Z,71.81
2022-11-24T10:15:34.039Z,73.94
2022-11-24T10:20:54.012Z,74.96
2022-11-24T10:25:59.591Z,74.72
2022-11-24T10:31:16.199Z,71.64
2022-11-24T10:36:25.370Z,73.35
2022-11-24T10:41:35.748Z,67.49
2022-11-24T10:46:39.526Z,68.61
2022-11-24T10:51:47.544Z,66.61
2022-11-24T10:56:51.914Z,59.81
2022-11-24T11:01:53.291Z,62.59
2022-11-24T11:07:27.404Z,62.41
2022-11-24T11:12:45.736Z,58.59
2022-11-24T11:17:50.322Z,59.05
2022-11-24T11:22:51.746Z,57.75
2022-11-24T11:28:15.033Z,56.68
2022-11-24T11:38:47.000Z,55.45
2022-11-24T11:43:51.279Z,55.00
2022-11-24T11:48:52.921Z,54.78
2022-11-24T11:54:09.606Z,54.45
2022-11-24T11:59:29.798Z,54.01
2022-11-24T12:04:31.155Z,50.90
2022-11-24T12:09:35.889Z,54.33
2022-11-24T12:14:39.281Z,53.16
2022-11-24T12:20:13.297Z,52.94
2022-11-24T12:25:34.542Z,53.64
2022-11-24T12:30:41.445Z,51.87
2022-11-24T12:35:44.635Z,53.73
2022-11-24T12:41:39.805Z,51.74
2022-11-24T12:46:26.645Z,51.79
2022-11-24T12:51:31.238Z,51.97
2022-11-24T12:56:37.905Z,52.42
2022-11-24T13:01:46.706Z,53.72
2022-11-24T13:06:51.211Z,55.58
2022-11-24T13:11:53.267Z,54.91
2022-11-24T13:17:29.313Z,53.21
2022-11-24T13:22:25.987Z,55.42
2022-11-24T13:27:31.535Z,54.73
2022-11-24T13:32:32.824Z,54.45
2022-11-24T13:37:35.897Z,55.43
2022-11-24T13:43:01.341Z,55.37
2022-11-24T13:48:22.981Z,56.98
2022-11-24T13:53:33.534Z,57.12
2022-11-24T13:58:38.084Z,59.26
2022-11-24T14:09:42.116Z,59.28
2022-11-24T14:14:44.508Z,62.89
2022-11-24T14:19:47.889Z,63.16
2022-11-24T14:24:53.644Z,65.68
2022-11-24T14:29:56.122Z,67.96
2022-11-24T14:34:57.578Z,68.50
2022-11-24T14:39:58.935Z,68.67
2022-11-24T14:45:02.891Z,69.23
2022-11-24T14:50:11.432Z,71.42
2022-11-24T14:55:29.344Z,72.14
2022-11-24T15:00:31.960Z,74.68
2022-11-24T15:05:52.489Z,76.16
2022-11-24T15:11:03.976Z,75.06
2022-11-24T15:16:07.832Z,76.96
2022-11-24T15:21:14.124Z,77.69
2022-11-24T15:26:18.693Z,76.87
2022-11-24T15:31:20.111Z,77.82
2022-11-24T15:36:21.458Z,79.59
2022-11-24T15:41:26.481Z,81.01
2022-11-24T15:46:28.838Z,83.07
2022-11-24T15:51:30.645Z,85.70
2022-11-24T15:56:33.976Z,84.36
2022-11-24T16:01:35.528Z,86.37
2022-11-24T16:06:36.985Z,89.06
2022-11-24T16:11:38.306Z,90.10
2022-11-24T16:16:40.753Z,90.70
2022-11-24T16:21:42.164Z,89.73
2022-11-24T16:26:43.496Z,91.09
2022-11-24T16:31:47.135Z,92.43
2022-11-24T16:36:48.762Z,94.50
2022-11-24T16:41:51.843Z,94.06
2022-11-24T16:46:53.416Z,94.71
2022-11-24T16:51:54.713Z,94.83
2022-11-24T16:56:56.022Z,92.78
2022-11-24T17:01:57.471Z,92.68
2022-11-24T17:06:58.856Z,92.31
2022-11-24T17:12:00.201Z,92.45
2022-11-24T17:17:01.576Z,93.18
2022-11-24T17:22:03.067Z,93.60
2022-11-24T17:27:04.394Z,93.44
2022-11-24T17:32:05.790Z,94.62
2022-11-24T17:37:07.191Z,94.46
2022-11-24T17:42:08.515Z,95.02
2022-11-24T17:47:09.846Z,95.20
2022-11-24T17:52:11.241Z,96.05
2022-11-24T17:57:12.569Z,96.52
2022-11-24T18:02:14.013Z,97.73
2022-11-24T18:07:15.389Z,98.10
2022-11-24T18:12:16.875Z,99.21
2022-11-24T18:17:18.173Z,100.00
2022-11-24T18:22:36.751Z,100.00
2022-11-24T18:27:41.446Z,100.00
2022-11-24T18:32:42.894Z,100.00
2022-11-24T18:37:44.545Z,100.00
2022-11-24T18:42:45.894Z,100.00
2022-11-24T18:47:47.346Z,100.00
2022-11-24T18:52:48.797Z,100.00
2022-11-24T18:57:50.141Z,100.00
2022-11-24T19:02:52.119Z,100.00
2022-11-24T19:07:53.566Z,100.00
2022-11-24T19:12:55.826Z,100.00
2022-11-24T19:17:57.155Z,100.00
2022-11-24T19:22:58.457Z,100.00
2022-11-24T19:27:59.799Z,100.00
2022-11-24T19:33:01.125Z,100.00
2022-11-24T19:38:02.545Z,100.00
2022-11-24T19:43:03.936Z,100.00
2022-11-24T19:48:05.686Z,100.00
2022-11-24T19:53:07.025Z,100.00
2022-11-24T19:58:08.498Z,100.00
2022-11-24T20:03:09.820Z,100.00
2022-11-24T20:08:11.138Z,100.00
2022-11-24T20:13:12.528Z,100.00
2022-11-24T20:18:13.868Z,100.00
2022-11-24T20:23:15.202Z,100.00
2022-11-24T20:28:16.509Z,100.00
2022-11-24T20:33:17.895Z,100.00
2022-11-24T20:38:19.376Z,100.00
2022-11-24T20:43:20.719Z,100.00
2022-11-24T20:48:22.067Z,100.00
2022-11-24T20:53:23.580Z,100.00
2022-11-24T20:58:24.903Z,100.00
2022-11-24T21:03:26.260Z,100.00
2022-11-24T21:08:27.931Z,100.00
2022-11-24T21:13:31.667Z,100.00
2022-11-24T21:18:33.575Z,100.00
2022-11-24T21:23:34.972Z,100.00
2022-11-24T21:28:36.290Z,100.00
2022-11-24T21:33:42.103Z,100.00
2022-11-24T21:38:43.819Z,100.00
2022-11-24T21:43:45.334Z,100.00
2022-11-24T21:48:46.668Z,100.00
2022-11-24T21:53:48.070Z,100.00
2022-11-24T21:58:49.368Z,100.00
2022-11-24T22:03:51.056Z,100.00
2022-11-24T22:08:52.449Z,100.00
2022-11-24T22:13:53.866Z,100.00
2022-11-24T22:18:55.257Z,100.00
2022-11-24T22:23:56.605Z,100.00
2022-11-24T22:28:58.171Z,100.00
2022-11-24T22:34:00.215Z,100.00
2022-11-24T22:39:03.166Z,100.00
2022-11-24T22:44:05.116Z,100.00
2022-11-24T22:49:06.557Z,100.00
2022-11-24T22:54:11.452Z,100.00
2022-11-24T22:59:12.808Z,100.00
2022-11-24T23:04:14.206Z,100.00
2022-11-24T23:09:15.592Z,100.00
2022-11-24T23:14:16.971Z,100.00
2022-11-24T23:19:18.311Z,100.00
2022-11-24T23:24:19.622Z,100.00
2022-11-24T23:29:20.983Z,100.00
2022-11-24T23:34:22.474Z,100.00
2022-11-24T23:39:24.281Z,100.00
2022-11-24T23:44:26.849Z,100.00
2022-11-24T23:49:28.821Z,100.00
2022-11-24T23:54:30.206Z,100.00
2022-11-24T23:59:31.558Z,100.00
